ADDS METAR Data INFO
IDs: Format: Raw Decoded Include TAF

Data at: 1747 UTC 21 Oct 2017

KSAN 211651Z 00000KT 10SM FEW035 19/11 A3006 RMK AO2 SLP177 T01890111 $
KSAN 211551Z 12003KT 10SM SCT022 SCT025 BKN035 17/11 A3005 RMK AO2 SLP176 T01670106 $
KSAN 211547Z 08003KT 10SM SCT022 SCT025 BKN035 17/11 A3005 RMK AO2 $
KSAN 211515Z 09004KT 10SM SCT022 BKN025 BKN035 17/11 A3004 RMK AO2 T01670106 $
KSAN 211451Z 09003KT 10SM SCT025 SCT035 16/11 A3003 RMK AO2 SLP170 T01610106 53013 $
KSAN 211351Z 07003KT 10SM FEW020 SCT025 16/11 A3002 RMK AO2 SLP164 T01610106 $
KSAN 211251Z 11003KT 10SM FEW025 17/12 A3000 RMK AO2 SLP160 T01670117 $
KSAN 211151Z 10005KT 10SM FEW025 17/12 A3000 RMK AO2 SLP157 60000 T01670117 10189 20167 55001 $
KSAN 211051Z 12005KT 10SM FEW027 FEW034 17/12 A2999 RMK AO2 SLP155 T01720117 $
KSAN 210951Z 12006KT 10SM FEW027 SCT032 18/12 A3000 RMK AO2 SLP157 T01780122 $
KSAN 210851Z 14009KT 10SM FEW027 SCT034 18/12 A3000 RMK AO2 SLP157 60000 T01830122 50002 $
KSAN 210751Z 12008KT 10SM FEW027 BKN033 BKN040 19/13 A3000 RMK AO2 SLP158 T01890128 402170183 $
KSAN 210651Z 15007KT 10SM FEW027 BKN034 BKN043 19/13 A2999 RMK AO2 RAB38E51 SLP156 VCSH P0000 T01890133 $
KSAN 210551Z 19006KT 10SM FEW026 BKN034 BKN042 19/13 A2999 RMK AO2 SLP155 T01890128 10206 20183 53006 $
KSAN 210451Z 22004KT 10SM BKN037 19/13 A2998 RMK AO2 SLP150 T01890128 $
KSAN 210351Z 24006KT 10SM BKN033 19/12 A2998 RMK AO2 SLP150 T01890122 $
KSAN 210317Z 25007KT 10SM BKN030 19/11 A2997 RMK AO2 T01890111 $
KSAN 210251Z 26007KT 10SM BKN027 BKN250 19/11 A2997 RMK AO2 SLP149 T01890117 53010 $
KSAN 210151Z 29009KT 10SM FEW019 BKN027 BKN250 19/13 A2996 RMK AO2 SLP146 T01890128 $
KSAN 210051Z 27010KT 10SM FEW019 SCT027 SCT050 BKN250 19/13 A2994 RMK AO2 SLP138 T01940133
KSAN 202351Z 29011KT 10SM FEW019 SCT027 SCT050 BKN250 21/13 A2994 RMK AO2 SLP139 60000 T02060128 10217 20189 58011
KSAN 202251Z 25013KT 10SM FEW022 SCT027 SCT036 BKN250 22/14 A2996 RMK AO2 SLP143 VCSH P0000 T02170144
KSAN 202233Z 28011KT 10SM SCT022 SCT027 BKN036 21/14 A2997 RMK AO2 VCSH P0000 T02110144
KSAN 202151Z 28012KT 10SM SCT020 BKN027 BKN036 22/15 A2997 RMK AO2 RAB23E45 SLP147 VCSH P0000 T02170150 $
KSAN 202051Z 28010KT 10SM SCT020 BKN027 OVC036 21/14 A2998 RMK AO2 SLP150 VCSH 60000 T02060144 58012
KSAN 201951Z 29011KT 10SM SCT020 BKN025 OVC036 21/15 A3000 RMK AO2 RAE06 SLP158 VCSH P0000 T02060150
KSAN 201851Z 30008KT 8SM -RA FEW017 BKN023 BKN034 19/16 A3001 RMK AO2 RAE17B37 SLP162 P0000 T01940161
KSAN 201751Z 29011KT 10SM -RA FEW020 BKN025 BKN035 21/15 A3001 RMK AO2 RAB41 SLP162 P0000 60000 T02060150 10211 20194 51006
KSAN 201737Z 30012KT 10SM FEW020 BKN025 BKN035 21/14 A3001 RMK AO2 T02060144
KSAN 201651Z 29015KT 10SM FEW020 SCT035 BKN050 BKN250 21/14 A3001 RMK AO2 SLP161 T02060144
KSAN 201551Z 30012KT 10SM FEW020 SCT050 SCT250 21/15 A3000 RMK AO2 RAB35E47 SLP159 P0000 T02060150
KSAN 201451Z 30009KT 10SM FEW020 SCT035 SCT050 BKN250 20/15 A2999 RMK AO2 SLP156 T02000150 53016
KSAN 201351Z 29003KT 10SM FEW020 SCT035 BKN050 21/16 A2998 RMK AO2 SLP150 T02060161
KSAN 201251Z 12004KT 10SM FEW020 BKN036 BKN050 19/16 A2996 RMK AO2 SLP145 T01940161
KSAN 201151Z 16003KT 10SM FEW017 SCT023 BKN060 BKN200 19/17 A2995 RMK AO2 SLP140 T01940167 10200 20194 56005
KSAN 201143Z 00000KT 10SM FEW017 SCT023 BKN060 19/17 A2995 RMK AO2 T01940167
KSAN 201051Z 00000KT 10SM FEW016 BKN023 BKN029 20/16 A2995 RMK AO2 SLP140 T02000161
KSAN 200951Z 00000KT 9SM FEW014 BKN022 19/16 A2995 RMK AO2 SLP141 T01940161
KSAN 200851Z 26006KT 9SM FEW014 BKN023 BKN029 20/16 A2996 RMK AO2 SLP145 T02000161 53000
KSAN 200751Z 19004KT 9SM FEW013 BKN019 19/17 A2994 RMK AO2 SLP140 CIG 017V023 T01940172 402220189
KSAN 200730Z 16004KT 9SM FEW013 BKN019 19/17 A2993 RMK AO2 CIG 017V023 T01940172
KSAN 200651Z 18003KT 9SM FEW014 SCT023 19/17 A2994 RMK AO2 SLP138 T01940167
KSAN 200643Z 18004KT 9SM FEW014 SCT023 20/17 A2995 RMK AO2 T02000172
KSAN 200551Z 21004KT 9SM SCT020 BKN025 20/17 A2996 RMK AO2 SLP145 T02000172 10217 20200 53011